Hakon Mosby — LJIT — position and weather

sailwx.info

Track history (hours):
 
Tides and Currents Weather Stations Pressure Air Temp Water Temp Dewpoint Dewpoint Depression Visibility Wind Speed Wind Dir Waves Ship Positions

Oceanographic research ship Hakon Mosby (Norway)

Detailed information on ship capabilities available from University of Delaware's Ocean Information Center and ARCUS's ALIAS (Arctic Logistics Information and Support) project.

Last reported at 2014-Sep-23 19:32 UTC. Time now 2014-Sep-23 20:28 UTC.
Position N 69°39' E 018°58'.

Type: Dredging. MMSI: 258244000.

Date/timePositionNaut miles runAvg speedWind from/ knotsBaromVisibWave heightAir tempDewpointWater temp
2014-Sep-23 19:32N 69°39' E 018°58'0 0.0
2014-Sep-23 18:29N 69°39' E 018°58'3 6.6
2014-Sep-23 18:00N 69°36' E 018°54'3 6.5 120 / 81018.2 4.7-5.2 7.3
2014-Sep-23 17:29N 69°39' E 018°58'3 6.6
2014-Sep-23 17:00N 69°36' E 018°54'3 7.2 110 / 61019.0 4.6-4.5 7.6
2014-Sep-23 16:32N 69°39' E 018°58'3 6.0
2014-Sep-23 16:00N 69°36' E 018°54'3 5.4 120 / 61019.2 4.3-4.7 7.6
2014-Sep-23 15:23N 69°39' E 018°58'3 8.3
2014-Sep-23 15:00N 69°36' E 018°54'3 6.4 160 / 41019.2 5.0-4.6 7.7
2014-Sep-23 14:29N 69°39' E 018°58'3 6.6
2014-Sep-23 14:00N 69°36' E 018°54'3 7.1 200 / 41019.3 5.8-1.0 7.5
2014-Sep-23 13:32N 69°39' E 018°58'3 6.0
2014-Sep-23 13:00N 69°36' E 018°54'3 7.1 210 / 41019.5 5.1-14.9 7.6
2014-Sep-23 12:32N 69°39' E 018°58'3 6.0
2014-Sep-23 12:00N 69°36' E 018°54'3 7.1 170 / 21019.7 6.3-1.3 7.5
2014-Sep-23 11:32N 69°39' E 018°58'0 0.0
2014-Sep-23 10:32N 69°39' E 018°58'3 6.0
2014-Sep-23 10:00N 69°36' E 018°54'3 6.4 190 / 21020.3 4.0-0.6 7.5
2014-Sep-23 09:29N 69°39' E 018°58'3 6.6
2014-Sep-23 09:00N 69°36' E 018°54'3 7.1 210 / 41020.6 3.7-0.7 7.5
2014-Sep-23 08:32N 69°39' E 018°58'3 6.0
2014-Sep-23 08:00N 69°36' E 018°54'3 6.4 110 / 21020.8 3.5-0.6 7.5
2014-Sep-23 07:29N 69°39' E 018°58'0 0.0
2014-Sep-23 06:32N 69°39' E 018°58'3 6.1
2014-Sep-23 06:00N 69°36' E 018°54'3 7.1 230 / 21020.8 2.7-0.5 7.6
2014-Sep-23 05:32N 69°39' E 018°58'3 6.1
2014-Sep-23 05:00N 69°36' E 018°54'3 5.8 210 1021.0 2.5-1.0 7.7
2014-Sep-23 04:26N 69°39' E 018°58'0 0.0
2014-Sep-23 03:32N 69°39' E 018°58'3 6.1
2014-Sep-23 03:00N 69°36' E 018°54'3 7.1 050 / 21021.0 1.3-3.2 7.7
2014-Sep-23 02:32N 69°39' E 018°58'3 6.1
2014-Sep-23 02:00N 69°36' E 018°54'3 7.1 100 / 21021.2 1.5-3.2 7.6
2014-Sep-23 01:32N 69°39' E 018°58'3 6.1
2014-Sep-23 01:00N 69°36' E 018°54'3 7.1 120 / 41021.2 2.6-2.7 7.6
2014-Sep-23 00:32N 69°39' E 018°58'3 6.1
2014-Sep-23 00:00N 69°36' E 018°54'3 6.4 240 1021.3 2.7-1.4 7.6
2014-Sep-22 23:29N 69°39' E 018°58'0 0.0
2014-Sep-22 22:32N 69°39' E 018°58'3 6.1
2014-Sep-22 22:00N 69°36' E 018°54'3 7.0 160 / 21021.7 3.1-0.8 7.4
2014-Sep-22 21:32N 69°39' E 018°58'3 6.1
2014-Sep-22 21:00N 69°36' E 018°54'3 7.0 210 / 21021.8 3.1-0.5 7.6
2014-Sep-22 20:32N 69°39' E 018°58'3 6.1
2014-Sep-22 20:00N 69°36' E 018°54'3 6.3 100 / 21022.0 3.1-0.5 7.6
2014-Sep-22 19:29N 69°39' E 018°58'3 6.7
2014-Sep-22 19:00N 69°36' E 018°54'3 7.0 080 / 21021.8 2.3-1.1 7.6
2014-Sep-22 18:32N 69°39' E 018°58'0 0.0
2014-Sep-22 17:29N 69°39' E 018°58'3 6.7
2014-Sep-22 17:00N 69°36' E 018°54'3 6.3 110 1021.8 3.7-1.2 7.8
2014-Sep-22 16:29N 69°39' E 018°58'3 6.8
2014-Sep-22 16:00N 69°36' E 018°54'3 7.0 100 / 21021.8 4.0-2.2 7.5
2014-Sep-22 15:32N 69°39' E 018°58'3 6.1
2014-Sep-22 15:00N 69°36' E 018°54'3 7.0 110 / 41021.7 3.7-2.1 7.6
2014-Sep-22 14:31N 69°39' E 018°58'1 0.5
2014-Sep-22 13:34N 69°39' E 018°58'4 6.7
2014-Sep-22 13:00N 69°36' E 018°54'4 8.4 100 / 41021.3 3.7-2.4 7.8
2014-Sep-22 12:33N 69°39' E 018°58'4 6.9
2014-Sep-22 12:00N 69°36' E 018°54'4 7.6 100 / 21021.2 4.9-2.2 7.8
2014-Sep-22 11:30N 69°39' E 018°58'4 7.6
2014-Sep-22 11:00N 69°36' E 018°54'4 8.4 080 / 21020.8 4.1-1.6 7.6
2014-Sep-22 10:33N 69°39' E 018°58'0 0.0
2014-Sep-22 09:29N 69°39' E 018°58'4 7.6
2014-Sep-22 09:00N 69°36' E 018°54'4 7.6 150 / 41020.1 3.1-1.9 7.6
2014-Sep-22 08:29N 69°39' E 018°58'0 0.0
2014-Sep-22 07:32N 69°39' E 018°58'4 6.9
2014-Sep-22 07:00N 69°36' E 018°54'510.5 190 / 41019.2 1.9-0.6 7.3
2014-Sep-22 06:31N 69°41' E 018°59'0 0.0
2014-Sep-22 05:31N 69°41' E 018°59'5 9.3
2014-Sep-22 05:00N 69°36' E 018°54'510.5 270 / 21018.1 1.0-0.2 7.5
2014-Sep-22 04:31N 69°41' E 018°59'0 0.0
2014-Sep-22 03:28N 69°41' E 018°59'0 0.0
2014-Sep-22 02:31N 69°41' E 018°59'0 0.0
2014-Sep-22 01:31N 69°41' E 018°59'5 9.4
2014-Sep-22 01:00N 69°36' E 018°54'510.4 220 / 81017.0 0.6-0.8 7.5
2014-Sep-22 00:31N 69°41' E 018°59'5 9.4
2014-Sep-22 00:00N 69°36' E 018°54'5 8.6 250 / 61017.0 0.6-1.2 7.5
2014-Sep-21 23:25N 69°41' E 018°59'511.6
2014-Sep-21 23:00N 69°36' E 018°54'510.4 250 / 61016.6 1.5-0.7 7.3
2014-Sep-21 22:31N 69°41' E 018°59'5 9.4
2014-Sep-21 22:00N 69°36' E 018°54'5 9.4 270 / 41016.6 1.5-0.8 7.5
2014-Sep-21 21:28N 69°41' E 018°59'510.4
2014-Sep-21 21:00N 69°36' E 018°54'510.4 230 / 41016.6 1.3-1.0 7.5
2014-Sep-21 20:31N 69°41' E 018°59'5 9.4
2014-Sep-21 20:00N 69°36' E 018°54'510.4 180 / 21016.2 1.6-0.8 7.3
2014-Sep-21 19:31N 69°41' E 018°59'5 9.4
2014-Sep-21 19:00N 69°36' E 018°54'510.4 300 / 61015.8 1.0-1.4 7.5
2014-Sep-21 18:31N 69°41' E 018°59'5 9.4
2014-Sep-21 18:00N 69°36' E 018°54'2 4.6 040 / 61015.6 2.3-1.0 7.2
2014-Sep-21 17:33N 69°38' E 018°56'916.4
2014-Sep-21 17:00N 69°30' E 018°42'8 8.4 130 / 41015.2 3.5-0.5 7.3
2014-Sep-21 16:00N 69°30' E 018°18'1413.6 300 / 81014.8 4.0 0.4 7.3
2014-Sep-21 15:00N 69°18' E 018°00'6 6.4 050 / 21014.5 3.8-0.0 9.5
2014-Sep-21 14:00N 69°12' E 017°54'7 7.4 080 / 101013.8 4.5 0.610.3
2014-Sep-21 13:00N 69°06' E 017°42'1010.5 130 / 81013.3 5.4 0.410.3
2014-Sep-21 12:00N 69°00' E 017°18'15 7.5 340 / 61012.9 4.9 0.1 9.7
2014-Sep-21 10:00N 69°00' E 016°36'15 7.4 360 / 161011.7 5.5 0.1 9.3
2014-Sep-21 08:00N 69°12' E 016°12'7 3.7 030 / 191010.3 6.2-0.8 9.6
2014-Sep-21 06:00N 69°06' E 016°24'6 6.4 030 / 191009.1 6.2-0.2 9.7
2014-Sep-21 05:00N 69°12' E 016°18'2 2.1 030 / 211008.7 5.3-0.110.0
2014-Sep-21 04:00N 69°12' E 016°12'6 6.4 030 / 171008.0 6.1-2.5 9.6
2014-Sep-21 03:00N 69°06' E 016°06'6 6.4 030 / 231007.7 6.1-0.0 9.6
2014-Sep-21 02:00N 69°12' E 016°12'6 6.0 040 / 251007.3 6.3 0.5 9.8
2014-Sep-21 01:00N 69°06' E 016°12'2 2.1 040 / 191007.2 6.5-0.1 9.6
2014-Sep-21 00:00N 69°06' E 016°06'6 6.0 040 / 211006.8 6.8 0.5 9.6
2014-Sep-20 23:00N 69°12' E 016°06'6 6.0 040 / 191007.1 7.0-0.5 9.6
2014-Sep-20 22:00N 69°06' E 016°06'4 4.3 040 / 211006.7 7.1 0.1 9.6
2014-Sep-20 21:00N 69°06' E 016°18'2 2.1 030 / 211006.7 7.3 1.3 9.8
2014-Sep-20 20:00N 69°06' E 016°24'6 3.2 030 / 191007.1 7.1 1.2 9.9
2014-Sep-20 18:00N 69°12' E 016°18'4 4.3 030 / 161007.2 7.5 1.010.0
2014-Sep-20 17:00N 69°12' E 016°06'0 0.0 040 / 141007.5 7.5 1.7 9.8
2014-Sep-20 16:00N 69°12' E 016°06'6 6.4 040 / 161007.5 7.8 2.0 9.6
2014-Sep-20 15:00N 69°06' E 016°12'4 2.1 030 / 161007.6 7.8 2.6 9.8
2014-Sep-20 13:00N 69°06' E 016°00'13 3.2 040 / 121007.4 7.6 3.010.1
2014-Sep-20 09:00N 69°18' E 016°12'7 3.7 060 / 121008.0 7.1 3.710.2
2014-Sep-20 07:00N 69°12' E 016°24'2 2.1 060 / 101008.1 7.0 4.810.1
2014-Sep-20 06:00N 69°12' E 016°30'2 2.1 060 / 61008.2 7.0 4.910.1
2014-Sep-20 05:00N 69°12' E 016°36'0 0.0 060 / 6 6.8 4.710.0
2014-Sep-20 04:00N 69°12' E 016°36'4 4.3 060 / 61009.0 6.8 4.2 9.8
2014-Sep-20 03:00N 69°12' E 016°24'4 4.3 090 / 61009.6 7.1 4.010.1
2014-Sep-20 02:00N 69°12' E 016°12'2 2.1 110 / 61010.1 7.3 4.110.0
2014-Sep-20 01:00N 69°12' E 016°06'6 6.0 100 / 101010.6 7.3 4.510.2
2014-Sep-20 00:00N 69°06' E 016°06'6 6.4 120 / 61011.2 7.6 4.7 9.8
2014-Sep-19 23:00N 69°12' E 016°12'6 6.4 130 / 61012.0 7.6 4.4 9.5
2014-Sep-19 22:00N 69°12' E 016°30'4 4.3 170 / 41012.8 7.6 3.510.2
2014-Sep-19 21:00N 69°12' E 016°18'6 6.4 180 / 81013.5 7.8-4.810.1
2014-Sep-19 20:00N 69°06' E 016°12'2 2.1 250 / 61013.8 7.8 3.010.0
2014-Sep-19 19:00N 69°06' E 016°06'6 6.4 130 / 61014.5 7.8-6.910.1
2014-Sep-19 18:00N 69°06' E 016°24'1010.5 100 / 61015.0 7.6 1.9 9.5
2014-Sep-19 17:00N 69°00' E 016°48'2010.1 040 / 41015.5 7.8 1.9 9.8
2014-Sep-19 15:00N 69°06' E 017°42'27 9.1 340 / 41016.5 8.0 1.210.6
2014-Sep-19 12:00N 69°30' E 018°18'1112.7 300 / 41018.0 6.3 0.1 8.1
2014-Sep-19 11:08N 69°34' E 018°47'426.2
2014-Sep-19 11:00N 69°30' E 018°48'920.7 220 / 21018.2 5.6 0.8 7.5
2014-Sep-19 10:33N 69°38' E 018°57'3 4.8
2014-Sep-19 10:00N 69°36' E 018°54'3 6.8 220 / 41018.6 5.6 1.5 7.5
2014-Sep-19 09:33N 69°39' E 018°57'0 0.0
2014-Sep-19 08:33N 69°39' E 018°57'3 5.5
2014-Sep-19 08:00N 69°36' E 018°54'3 6.1 200 / 41019.3 4.0 1.2 7.5
2014-Sep-19 07:30N 69°39' E 018°57'0 0.0
2014-Sep-19 06:33N 69°39' E 018°57'3 5.5
2014-Sep-19 06:00N 69°36' E 018°54'3 7.0 230 / 21019.7 4.1 1.3 7.6
2014-Sep-19 05:33N 69°39' E 018°57'0 0.1
2014-Sep-19 04:33N 69°39' E 018°58'6 3.7
2014-Sep-19 03:00N 69°42' E 019°12'7 7.3 300 / 61020.3 4.3 1.0 7.1
2014-Sep-19 02:00N 69°48' E 019°24'1312.7 280 / 41020.6 3.1-0.0 7.8
2014-Sep-19 01:00N 70°00' E 019°36'6 6.3 260 / 81020.6 5.8-0.9 8.3
2014-Sep-19 00:00N 70°06' E 019°30'18 9.2 250 / 101020.8 6.1-0.2 8.6
2014-Sep-18 22:00N 70°24' E 019°18'18 9.1 280 / 161021.2 6.8 0.4 8.6
2014-Sep-18 20:00N 70°42' E 019°12'1212.0 280 / 211021.3 6.8-0.3 8.6
2014-Sep-18 19:00N 70°54' E 019°12'1212.2 290 / 191021.3 6.8-0.0 8.6
2014-Sep-18 18:00N 71°06' E 019°06'36 9.1 290 / 211021.2 6.3-0.7 8.7
2014-Sep-18 14:00N 71°42' E 018°54'1212.1 300 / 271020.8 6.3-1.7 8.3
2014-Sep-18 13:00N 71°54' E 018°48'6 6.3 300 / 291020.5 6.3-1.5 8.2
2014-Sep-18 12:00N 72°00' E 018°42'2412.1 300 / 291020.2 6.1-1.0 8.4
2014-Sep-18 10:00N 72°24' E 018°30'19 9.4 300 / 29 5.8-2.6 8.0
2014-Sep-18 08:00N 72°42' E 018°12'6 6.3 300 / 311018.9 5.4-2.3 7.3
2014-Sep-18 07:00N 72°48' E 018°06'1312.5 290 / 291018.2 4.5-0.9 7.0
2014-Sep-18 06:00N 73°00' E 017°54'7 6.9 300 / 331018.0 4.3-1.2 6.5
2014-Sep-18 05:00N 73°06' E 017°42'1212.5 300 / 291017.5 4.3-1.5 6.0
2014-Sep-18 04:00N 73°18' E 017°30'1212.1 300 / 331016.8 4.5-1.8 6.0
2014-Sep-18 03:00N 73°30' E 017°24'7 6.9 310 / 231016.6 3.3 0.3 4.7
2014-Sep-18 02:00N 73°36' E 017°12'1212.1 300 / 291016.1 3.6-2.0 4.1
2014-Sep-18 01:00N 73°48' E 017°06'6 6.2 290 / 271015.7 3.2-0.8 5.5
2014-Sep-18 00:00N 73°54' E 017°00'1212.4 290 / 311015.3 3.2-1.7 5.1
2014-Sep-17 23:00N 74°06' E 016°48'19 9.3 290 / 311015.2 3.3-2.4 6.6
2014-Sep-17 21:00N 74°24' E 016°30'1212.1 290 / 23 2.0-2.0 6.0
2014-Sep-17 20:00N 74°36' E 016°24'1212.1 310 / 311014.2 1.3-1.6 6.3
2014-Sep-17 19:00N 74°48' E 016°18'6 6.0 320 / 251013.2 2.8-3.0 6.3
2014-Sep-17 18:00N 74°54' E 016°18'1212.1 320 / 271012.1 3.0-2.9 5.8
2014-Sep-17 17:00N 75°06' E 016°12'18 9.1 310 / 271011.2 2.5-1.6 5.6
2014-Sep-17 15:00N 75°24' E 016°00'1212.4 300 / 231009.2 1.3-1.6 5.9
2014-Sep-17 14:00N 75°36' E 015°48'7 6.7 300 / 271008.0 1.7-2.7 5.7
2014-Sep-17 13:00N 75°42' E 015°36'1212.4 280 / 251007.2 1.3-0.4 5.6
2014-Sep-17 12:00N 75°54' E 015°24'7 6.7 300 / 311006.6 2.0-1.1 5.8
2014-Sep-17 11:00N 76°00' E 015°12'1212.3 290 / 211006.3 1.4-1.3 4.7
2014-Sep-17 10:00N 76°12' E 015°00'7 6.6 300 / 231005.7 1.9-1.5 4.4
2014-Sep-17 09:00N 76°18' E 014°48'1212.3 290 / 271005.2 2.1-1.3 5.7
2014-Sep-17 08:00N 76°30' E 014°36'6 6.2 290 / 251004.8 2.8-4.1 5.5
2014-Sep-17 07:00N 76°36' E 014°30'1212.3 300 / 271004.6 2.5-3.6 4.5
2014-Sep-17 06:00N 76°48' E 014°18'19 9.4 290 / 271004.0 2.7-3.7 4.1
2014-Sep-17 04:00N 77°06' E 013°54'1212.3 290 / 211003.6 3.0-0.7 3.9
2014-Sep-17 03:00N 77°18' E 013°42'7 6.6 290 / 231003.7 2.7 0.1 4.4
2014-Sep-17 02:00N 77°24' E 013°30'1212.1 270 / 211003.3 4.2 1.1 4.6
2014-Sep-17 01:00N 77°36' E 013°24'7 6.5 250 / 251003.5 4.6 1.7 4.3
2014-Sep-17 00:00N 77°42' E 013°12'1212.1 240 / 251003.3 5.5 2.0 4.4
2014-Sep-16 23:00N 77°54' E 013°06'21 7.1 230 / 251003.7 4.5 1.9 4.4
2014-Sep-16 20:00N 78°06' E 014°30'18 0.5 220 / 141005.3 6.3 2.8 4.6
2014-Sep-15 05:00N 78°18' E 015°36'9 4.3 340 / 61014.1 1.5-5.9 4.6
2014-Sep-15 03:00N 78°24' E 015°06'0 0.0 300 / 81013.2 1.6-5.1 4.9
2014-Sep-15 02:00N 78°24' E 015°06'0 0.0 290 / 41013.1 1.3-5.3 4.8
2014-Sep-15 01:00N 78°24' E 015°06'0 0.0 290 / 61012.7 1.5-5.2 4.8
2014-Sep-15 00:00N 78°24' E 015°06'0 0.0 280 / 81012.2 1.4-5.7 4.8
2014-Sep-14 22:00N 78°24' E 015°06'0 0.0 290 / 121010.6 1.3-5.8 4.6
2014-Sep-14 21:00N 78°24' E 015°06'0 0.0 290 / 121010.3 1.3-6.2 4.6
2014-Sep-14 20:00N 78°24' E 015°06'1 1.2 290 / 161009.5 1.3-6.1 4.8
2014-Sep-14 19:00N 78°24' E 015°00'0 0.0 290 / 161009.2 1.3-6.1 4.8
2014-Sep-14 18:00N 78°24' E 015°00'1 0.6 310 / 121008.8 1.0-5.4 4.6
2014-Sep-14 16:00N 78°24' E 014°54'1 1.2 310 / 161007.5 0.6-6.3 4.6
2014-Sep-14 15:00N 78°24' E 015°00'0 0.0 290 / 121006.7 0.2-5.5 4.5
2014-Sep-14 14:00N 78°24' E 015°00'6 3.1 300 / 141005.8 0.2-5.4 4.6
2014-Sep-14 12:00N 78°30' E 014°54'0 0.0 270 / 141004.1 0.3-5.7 4.6
2014-Sep-14 11:00N 78°30' E 014°54'4 3.6 280 / 161003.2 0.5-5.3 4.5
2014-Sep-14 10:00N 78°30' E 014°36'1 1.2 290 / 101001.5 0.6-6.6 4.4
2014-Sep-14 09:00N 78°30' E 014°42'4 3.6 320 / 101000.1 0.6-6.2 4.5
2014-Sep-14 08:00N 78°30' E 015°00'6 3.1 300 / 19998.1 0.7-5.1 4.7
2014-Sep-14 06:00N 78°24' E 014°54'0 0.0 280 / 17994.5 1.5-4.2 4.8
2014-Sep-14 05:00N 78°24' E 014°54'6 6.0 270 / 14993.5 0.9-3.0 4.8
2014-Sep-14 04:00N 78°18' E 014°54'2 2.4 270 / 19992.0 1.6-3.5 4.8
2014-Sep-14 03:00N 78°18' E 014°42'7 7.0 270 / 16991.0 1.6-1.8 4.9
2014-Sep-14 02:00N 78°12' E 014°24'16 8.0 280 / 17990.1 1.5-2.1 4.9
2014-Sep-14 00:00N 78°06' E 013°12'10 9.6 300 / 31988.9 1.6-1.0 4.6
2014-Sep-13 23:00N 78°00' E 012°36'6 6.2 300 / 29988.0 2.3 0.1 5.0
2014-Sep-13 22:00N 78°00' E 012°06'   310 / 25987.5 2.5-0.6 4.9
Track history (hours):
 
Tides and Currents Weather Stations Pressure Air Temp Water Temp Dewpoint Dewpoint Depression Visibility Wind Speed Wind Dir Waves Ship Positions

Oceanographic research ship Hakon Mosby (Norway)

Detailed information on ship capabilities available from University of Delaware's Ocean Information Center and ARCUS's ALIAS (Arctic Logistics Information and Support) project.

Last reported at 2014-Sep-23 19:32 UTC. Time now 2014-Sep-23 20:28 UTC.
Position N 69°39' E 018°58'.

Type: Dredging. MMSI: 258244000.

Date/timePositionNaut miles runAvg speedWind from/ knotsBaromVisibWave heightAir tempDewpointWater temp
2014-Sep-23 19:32N 69°39' E 018°58'0 0.0
2014-Sep-23 18:29N 69°39' E 018°58'3 6.6
2014-Sep-23 18:00N 69°36' E 018°54'3 6.5 120 / 81018.2 4.7-5.2 7.3
2014-Sep-23 17:29N 69°39' E 018°58'3 6.6
2014-Sep-23 17:00N 69°36' E 018°54'3 7.2 110 / 61019.0 4.6-4.5 7.6
2014-Sep-23 16:32N 69°39' E 018°58'3 6.0
2014-Sep-23 16:00N 69°36' E 018°54'3 5.4 120 / 61019.2 4.3-4.7 7.6
2014-Sep-23 15:23N 69°39' E 018°58'3 8.3
2014-Sep-23 15:00N 69°36' E 018°54'3 6.4 160 / 41019.2 5.0-4.6 7.7
2014-Sep-23 14:29N 69°39' E 018°58'3 6.6
2014-Sep-23 14:00N 69°36' E 018°54'3 7.1 200 / 41019.3 5.8-1.0 7.5
2014-Sep-23 13:32N 69°39' E 018°58'3 6.0
2014-Sep-23 13:00N 69°36' E 018°54'3 7.1 210 / 41019.5 5.1-14.9 7.6
2014-Sep-23 12:32N 69°39' E 018°58'3 6.0
2014-Sep-23 12:00N 69°36' E 018°54'3 7.1 170 / 21019.7 6.3-1.3 7.5
2014-Sep-23 11:32N 69°39' E 018°58'0 0.0
2014-Sep-23 10:32N 69°39' E 018°58'3 6.0
2014-Sep-23 10:00N 69°36' E 018°54'3 6.4 190 / 21020.3 4.0-0.6 7.5
2014-Sep-23 09:29N 69°39' E 018°58'3 6.6
2014-Sep-23 09:00N 69°36' E 018°54'3 7.1 210 / 41020.6 3.7-0.7 7.5
2014-Sep-23 08:32N 69°39' E 018°58'3 6.0
2014-Sep-23 08:00N 69°36' E 018°54'3 6.4 110 / 21020.8 3.5-0.6 7.5
2014-Sep-23 07:29N 69°39' E 018°58'0 0.0
2014-Sep-23 06:32N 69°39' E 018°58'3 6.1
2014-Sep-23 06:00N 69°36' E 018°54'3 7.1 230 / 21020.8 2.7-0.5 7.6
2014-Sep-23 05:32N 69°39' E 018°58'3 6.1
2014-Sep-23 05:00N 69°36' E 018°54'3 5.8 210 1021.0 2.5-1.0 7.7
2014-Sep-23 04:26N 69°39' E 018°58'0 0.0
2014-Sep-23 03:32N 69°39' E 018°58'3 6.1
2014-Sep-23 03:00N 69°36' E 018°54'3 7.1 050 / 21021.0 1.3-3.2 7.7
2014-Sep-23 02:32N 69°39' E 018°58'3 6.1
2014-Sep-23 02:00N 69°36' E 018°54'3 7.1 100 / 21021.2 1.5-3.2 7.6
2014-Sep-23 01:32N 69°39' E 018°58'3 6.1
2014-Sep-23 01:00N 69°36' E 018°54'3 7.1 120 / 41021.2 2.6-2.7 7.6
2014-Sep-23 00:32N 69°39' E 018°58'3 6.1
2014-Sep-23 00:00N 69°36' E 018°54'3 6.4 240 1021.3 2.7-1.4 7.6
2014-Sep-22 23:29N 69°39' E 018°58'0 0.0
2014-Sep-22 22:32N 69°39' E 018°58'3 6.1
2014-Sep-22 22:00N 69°36' E 018°54'3 7.0 160 / 21021.7 3.1-0.8 7.4
2014-Sep-22 21:32N 69°39' E 018°58'3 6.1
2014-Sep-22 21:00N 69°36' E 018°54'3 7.0 210 / 21021.8 3.1-0.5 7.6
2014-Sep-22 20:32N 69°39' E 018°58'3 6.1
2014-Sep-22 20:00N 69°36' E 018°54'3 6.3 100 / 21022.0 3.1-0.5 7.6
2014-Sep-22 19:29N 69°39' E 018°58'3 6.7
2014-Sep-22 19:00N 69°36' E 018°54'3 7.0 080 / 21021.8 2.3-1.1 7.6
2014-Sep-22 18:32N 69°39' E 018°58'0 0.0
2014-Sep-22 17:29N 69°39' E 018°58'3 6.7
2014-Sep-22 17:00N 69°36' E 018°54'3 6.3 110 1021.8 3.7-1.2 7.8
2014-Sep-22 16:29N 69°39' E 018°58'3 6.8
2014-Sep-22 16:00N 69°36' E 018°54'3 7.0 100 / 21021.8 4.0-2.2 7.5
2014-Sep-22 15:32N 69°39' E 018°58'3 6.1
2014-Sep-22 15:00N 69°36' E 018°54'3 7.0 110 / 41021.7 3.7-2.1 7.6
2014-Sep-22 14:31N 69°39' E 018°58'1 0.5
2014-Sep-22 13:34N 69°39' E 018°58'4 6.7
2014-Sep-22 13:00N 69°36' E 018°54'4 8.4 100 / 41021.3 3.7-2.4 7.8
2014-Sep-22 12:33N 69°39' E 018°58'4 6.9
2014-Sep-22 12:00N 69°36' E 018°54'4 7.6 100 / 21021.2 4.9-2.2 7.8
2014-Sep-22 11:30N 69°39' E 018°58'4 7.6
2014-Sep-22 11:00N 69°36' E 018°54'4 8.4 080 / 21020.8 4.1-1.6 7.6
2014-Sep-22 10:33N 69°39' E 018°58'0 0.0
2014-Sep-22 09:29N 69°39' E 018°58'4 7.6
2014-Sep-22 09:00N 69°36' E 018°54'4 7.6 150 / 41020.1 3.1-1.9 7.6
2014-Sep-22 08:29N 69°39' E 018°58'0 0.0
2014-Sep-22 07:32N 69°39' E 018°58'4 6.9
2014-Sep-22 07:00N 69°36' E 018°54'510.5 190 / 41019.2 1.9-0.6 7.3
2014-Sep-22 06:31N 69°41' E 018°59'0 0.0
2014-Sep-22 05:31N 69°41' E 018°59'5 9.3
2014-Sep-22 05:00N 69°36' E 018°54'510.5 270 / 21018.1 1.0-0.2 7.5
2014-Sep-22 04:31N 69°41' E 018°59'0 0.0
2014-Sep-22 03:28N 69°41' E 018°59'0 0.0
2014-Sep-22 02:31N 69°41' E 018°59'0 0.0
2014-Sep-22 01:31N 69°41' E 018°59'5 9.4
2014-Sep-22 01:00N 69°36' E 018°54'510.4 220 / 81017.0 0.6-0.8 7.5
2014-Sep-22 00:31N 69°41' E 018°59'5 9.4
2014-Sep-22 00:00N 69°36' E 018°54'5 8.6 250 / 61017.0 0.6-1.2 7.5
2014-Sep-21 23:25N 69°41' E 018°59'511.6
2014-Sep-21 23:00N 69°36' E 018°54'510.4 250 / 61016.6 1.5-0.7 7.3
2014-Sep-21 22:31N 69°41' E 018°59'5 9.4
2014-Sep-21 22:00N 69°36' E 018°54'5 9.4 270 / 41016.6 1.5-0.8 7.5
2014-Sep-21 21:28N 69°41' E 018°59'510.4
2014-Sep-21 21:00N 69°36' E 018°54'510.4 230 / 41016.6 1.3-1.0 7.5
2014-Sep-21 20:31N 69°41' E 018°59'5 9.4
2014-Sep-21 20:00N 69°36' E 018°54'510.4 180 / 21016.2 1.6-0.8 7.3
2014-Sep-21 19:31N 69°41' E 018°59'5 9.4
2014-Sep-21 19:00N 69°36' E 018°54'510.4 300 / 61015.8 1.0-1.4 7.5
2014-Sep-21 18:31N 69°41' E 018°59'5 9.4
2014-Sep-21 18:00N 69°36' E 018°54'2 4.6 040 / 61015.6 2.3-1.0 7.2
2014-Sep-21 17:33N 69°38' E 018°56'916.4
2014-Sep-21 17:00N 69°30' E 018°42'8 8.4 130 / 41015.2 3.5-0.5 7.3
2014-Sep-21 16:00N 69°30' E 018°18'1413.6 300 / 81014.8 4.0 0.4 7.3
2014-Sep-21 15:00N 69°18' E 018°00'6 6.4 050 / 21014.5 3.8-0.0 9.5
2014-Sep-21 14:00N 69°12' E 017°54'7 7.4 080 / 101013.8 4.5 0.610.3
2014-Sep-21 13:00N 69°06' E 017°42'1010.5 130 / 81013.3 5.4 0.410.3
2014-Sep-21 12:00N 69°00' E 017°18'15 7.5 340 / 61012.9 4.9 0.1 9.7
2014-Sep-21 10:00N 69°00' E 016°36'15 7.4 360 / 161011.7 5.5 0.1 9.3
2014-Sep-21 08:00N 69°12' E 016°12'7 3.7 030 / 191010.3 6.2-0.8 9.6
2014-Sep-21 06:00N 69°06' E 016°24'6 6.4 030 / 191009.1 6.2-0.2 9.7
2014-Sep-21 05:00N 69°12' E 016°18'2 2.1 030 / 211008.7 5.3-0.110.0
2014-Sep-21 04:00N 69°12' E 016°12'6 6.4 030 / 171008.0 6.1-2.5 9.6
2014-Sep-21 03:00N 69°06' E 016°06'6 6.4 030 / 231007.7 6.1-0.0 9.6
2014-Sep-21 02:00N 69°12' E 016°12'6 6.0 040 / 251007.3 6.3 0.5 9.8
2014-Sep-21 01:00N 69°06' E 016°12'2 2.1 040 / 191007.2 6.5-0.1 9.6
2014-Sep-21 00:00N 69°06' E 016°06'6 6.0 040 / 211006.8 6.8 0.5 9.6
2014-Sep-20 23:00N 69°12' E 016°06'6 6.0 040 / 191007.1 7.0-0.5 9.6
2014-Sep-20 22:00N 69°06' E 016°06'4 4.3 040 / 211006.7 7.1 0.1 9.6
2014-Sep-20 21:00N 69°06' E 016°18'2 2.1 030 / 211006.7 7.3 1.3 9.8
2014-Sep-20 20:00N 69°06' E 016°24'6 3.2 030 / 191007.1 7.1 1.2 9.9
2014-Sep-20 18:00N 69°12' E 016°18'4 4.3 030 / 161007.2 7.5 1.010.0
2014-Sep-20 17:00N 69°12' E 016°06'0 0.0 040 / 141007.5 7.5 1.7 9.8
2014-Sep-20 16:00N 69°12' E 016°06'6 6.4 040 / 161007.5 7.8 2.0 9.6
2014-Sep-20 15:00N 69°06' E 016°12'4 2.1 030 / 161007.6 7.8 2.6 9.8
2014-Sep-20 13:00N 69°06' E 016°00'13 3.2 040 / 121007.4 7.6 3.010.1
2014-Sep-20 09:00N 69°18' E 016°12'7 3.7 060 / 121008.0 7.1 3.710.2
2014-Sep-20 07:00N 69°12' E 016°24'2 2.1 060 / 101008.1 7.0 4.810.1
2014-Sep-20 06:00N 69°12' E 016°30'2 2.1 060 / 61008.2 7.0 4.910.1
2014-Sep-20 05:00N 69°12' E 016°36'0 0.0 060 / 6 6.8 4.710.0
2014-Sep-20 04:00N 69°12' E 016°36'4 4.3 060 / 61009.0 6.8 4.2 9.8
2014-Sep-20 03:00N 69°12' E 016°24'4 4.3 090 / 61009.6 7.1 4.010.1
2014-Sep-20 02:00N 69°12' E 016°12'2 2.1 110 / 61010.1 7.3 4.110.0
2014-Sep-20 01:00N 69°12' E 016°06'6 6.0 100 / 101010.6 7.3 4.510.2
2014-Sep-20 00:00N 69°06' E 016°06'6 6.4 120 / 61011.2 7.6 4.7 9.8
2014-Sep-19 23:00N 69°12' E 016°12'6 6.4 130 / 61012.0 7.6 4.4 9.5
2014-Sep-19 22:00N 69°12' E 016°30'4 4.3 170 / 41012.8 7.6 3.510.2
2014-Sep-19 21:00N 69°12' E 016°18'6 6.4 180 / 81013.5 7.8-4.810.1
2014-Sep-19 20:00N 69°06' E 016°12'2 2.1 250 / 61013.8 7.8 3.010.0
2014-Sep-19 19:00N 69°06' E 016°06'6 6.4 130 / 61014.5 7.8-6.910.1
2014-Sep-19 18:00N 69°06' E 016°24'1010.5 100 / 61015.0 7.6 1.9 9.5
2014-Sep-19 17:00N 69°00' E 016°48'2010.1 040 / 41015.5 7.8 1.9 9.8
2014-Sep-19 15:00N 69°06' E 017°42'27 9.1 340 / 41016.5 8.0 1.210.6
2014-Sep-19 12:00N 69°30' E 018°18'1112.7 300 / 41018.0 6.3 0.1 8.1
2014-Sep-19 11:08N 69°34' E 018°47'426.2
2014-Sep-19 11:00N 69°30' E 018°48'920.7 220 / 21018.2 5.6 0.8 7.5
2014-Sep-19 10:33N 69°38' E 018°57'3 4.8
2014-Sep-19 10:00N 69°36' E 018°54'3 6.8 220 / 41018.6 5.6 1.5 7.5
2014-Sep-19 09:33N 69°39' E 018°57'0 0.0
2014-Sep-19 08:33N 69°39' E 018°57'3 5.5
2014-Sep-19 08:00N 69°36' E 018°54'3 6.1 200 / 41019.3 4.0 1.2 7.5
2014-Sep-19 07:30N 69°39' E 018°57'0 0.0
2014-Sep-19 06:33N 69°39' E 018°57'3 5.5
2014-Sep-19 06:00N 69°36' E 018°54'3 7.0 230 / 21019.7 4.1 1.3 7.6
2014-Sep-19 05:33N 69°39' E 018°57'0 0.1
2014-Sep-19 04:33N 69°39' E 018°58'6 3.7
2014-Sep-19 03:00N 69°42' E 019°12'7 7.3 300 / 61020.3 4.3 1.0 7.1
2014-Sep-19 02:00N 69°48' E 019°24'1312.7 280 / 41020.6 3.1-0.0 7.8
2014-Sep-19 01:00N 70°00' E 019°36'6 6.3 260 / 81020.6 5.8-0.9 8.3
2014-Sep-19 00:00N 70°06' E 019°30'18 9.2 250 / 101020.8 6.1-0.2 8.6
2014-Sep-18 22:00N 70°24' E 019°18'18 9.1 280 / 161021.2 6.8 0.4 8.6
2014-Sep-18 20:00N 70°42' E 019°12'1212.0 280 / 211021.3 6.8-0.3 8.6
2014-Sep-18 19:00N 70°54' E 019°12'1212.2 290 / 191021.3 6.8-0.0 8.6
2014-Sep-18 18:00N 71°06' E 019°06'36 9.1 290 / 211021.2 6.3-0.7 8.7
2014-Sep-18 14:00N 71°42' E 018°54'1212.1 300 / 271020.8 6.3-1.7 8.3
2014-Sep-18 13:00N 71°54' E 018°48'6 6.3 300 / 291020.5 6.3-1.5 8.2
2014-Sep-18 12:00N 72°00' E 018°42'2412.1 300 / 291020.2 6.1-1.0 8.4
2014-Sep-18 10:00N 72°24' E 018°30'19 9.4 300 / 29 5.8-2.6 8.0
2014-Sep-18 08:00N 72°42' E 018°12'6 6.3 300 / 311018.9 5.4-2.3 7.3
2014-Sep-18 07:00N 72°48' E 018°06'1312.5 290 / 291018.2 4.5-0.9 7.0
2014-Sep-18 06:00N 73°00' E 017°54'7 6.9 300 / 331018.0 4.3-1.2 6.5
2014-Sep-18 05:00N 73°06' E 017°42'1212.5 300 / 291017.5 4.3-1.5 6.0
2014-Sep-18 04:00N 73°18' E 017°30'1212.1 300 / 331016.8 4.5-1.8 6.0
2014-Sep-18 03:00N 73°30' E 017°24'7 6.9 310 / 231016.6 3.3 0.3 4.7
2014-Sep-18 02:00N 73°36' E 017°12'1212.1 300 / 291016.1 3.6-2.0 4.1
2014-Sep-18 01:00N 73°48' E 017°06'6 6.2 290 / 271015.7 3.2-0.8 5.5
2014-Sep-18 00:00N 73°54' E 017°00'1212.4 290 / 311015.3 3.2-1.7 5.1
2014-Sep-17 23:00N 74°06' E 016°48'19 9.3 290 / 311015.2 3.3-2.4 6.6
2014-Sep-17 21:00N 74°24' E 016°30'1212.1 290 / 23 2.0-2.0 6.0
2014-Sep-17 20:00N 74°36' E 016°24'1212.1 310 / 311014.2 1.3-1.6 6.3
2014-Sep-17 19:00N 74°48' E 016°18'6 6.0 320 / 251013.2 2.8-3.0 6.3
2014-Sep-17 18:00N 74°54' E 016°18'1212.1 320 / 271012.1 3.0-2.9 5.8
2014-Sep-17 17:00N 75°06' E 016°12'18 9.1 310 / 271011.2 2.5-1.6 5.6
2014-Sep-17 15:00N 75°24' E 016°00'1212.4 300 / 231009.2 1.3-1.6 5.9
2014-Sep-17 14:00N 75°36' E 015°48'7 6.7 300 / 271008.0 1.7-2.7 5.7
2014-Sep-17 13:00N 75°42' E 015°36'1212.4 280 / 251007.2 1.3-0.4 5.6
2014-Sep-17 12:00N 75°54' E 015°24'7 6.7 300 / 311006.6 2.0-1.1 5.8
2014-Sep-17 11:00N 76°00' E 015°12'1212.3 290 / 211006.3 1.4-1.3 4.7
2014-Sep-17 10:00N 76°12' E 015°00'7 6.6 300 / 231005.7 1.9-1.5 4.4
2014-Sep-17 09:00N 76°18' E 014°48'1212.3 290 / 271005.2 2.1-1.3 5.7
2014-Sep-17 08:00N 76°30' E 014°36'6 6.2 290 / 251004.8 2.8-4.1 5.5
2014-Sep-17 07:00N 76°36' E 014°30'1212.3 300 / 271004.6 2.5-3.6 4.5
2014-Sep-17 06:00N 76°48' E 014°18'19 9.4 290 / 271004.0 2.7-3.7 4.1
2014-Sep-17 04:00N 77°06' E 013°54'1212.3 290 / 211003.6 3.0-0.7 3.9
2014-Sep-17 03:00N 77°18' E 013°42'7 6.6 290 / 231003.7 2.7 0.1 4.4
2014-Sep-17 02:00N 77°24' E 013°30'1212.1 270 / 211003.3 4.2 1.1 4.6
2014-Sep-17 01:00N 77°36' E 013°24'7 6.5 250 / 251003.5 4.6 1.7 4.3
2014-Sep-17 00:00N 77°42' E 013°12'1212.1 240 / 251003.3 5.5 2.0 4.4
2014-Sep-16 23:00N 77°54' E 013°06'21 7.1 230 / 251003.7 4.5 1.9 4.4
2014-Sep-16 20:00N 78°06' E 014°30'18 0.5 220 / 141005.3 6.3 2.8 4.6
2014-Sep-15 05:00N 78°18' E 015°36'9 4.3 340 / 61014.1 1.5-5.9 4.6
2014-Sep-15 03:00N 78°24' E 015°06'0 0.0 300 / 81013.2 1.6-5.1 4.9
2014-Sep-15 02:00N 78°24' E 015°06'0 0.0 290 / 41013.1 1.3-5.3 4.8
2014-Sep-15 01:00N 78°24' E 015°06'0 0.0 290 / 61012.7 1.5-5.2 4.8
2014-Sep-15 00:00N 78°24' E 015°06'0 0.0 280 / 81012.2 1.4-5.7 4.8
2014-Sep-14 22:00N 78°24' E 015°06'0 0.0 290 / 121010.6 1.3-5.8 4.6
2014-Sep-14 21:00N 78°24' E 015°06'0 0.0 290 / 121010.3 1.3-6.2 4.6
2014-Sep-14 20:00N 78°24' E 015°06'1 1.2 290 / 161009.5 1.3-6.1 4.8
2014-Sep-14 19:00N 78°24' E 015°00'0 0.0 290 / 161009.2 1.3-6.1 4.8
2014-Sep-14 18:00N 78°24' E 015°00'1 0.6 310 / 121008.8 1.0-5.4 4.6
2014-Sep-14 16:00N 78°24' E 014°54'1 1.2 310 / 161007.5 0.6-6.3 4.6
2014-Sep-14 15:00N 78°24' E 015°00'0 0.0 290 / 121006.7 0.2-5.5 4.5
2014-Sep-14 14:00N 78°24' E 015°00'6 3.1 300 / 141005.8 0.2-5.4 4.6
2014-Sep-14 12:00N 78°30' E 014°54'0 0.0 270 / 141004.1 0.3-5.7 4.6
2014-Sep-14 11:00N 78°30' E 014°54'4 3.6 280 / 161003.2 0.5-5.3 4.5
2014-Sep-14 10:00N 78°30' E 014°36'1 1.2 290 / 101001.5 0.6-6.6 4.4
2014-Sep-14 09:00N 78°30' E 014°42'4 3.6 320 / 101000.1 0.6-6.2 4.5
2014-Sep-14 08:00N 78°30' E 015°00'6 3.1 300 / 19998.1 0.7-5.1 4.7
2014-Sep-14 06:00N 78°24' E 014°54'0 0.0 280 / 17994.5 1.5-4.2 4.8
2014-Sep-14 05:00N 78°24' E 014°54'6 6.0 270 / 14993.5 0.9-3.0 4.8
2014-Sep-14 04:00N 78°18' E 014°54'2 2.4 270 / 19992.0 1.6-3.5 4.8
2014-Sep-14 03:00N 78°18' E 014°42'7 7.0 270 / 16991.0 1.6-1.8 4.9
2014-Sep-14 02:00N 78°12' E 014°24'16 8.0 280 / 17990.1 1.5-2.1 4.9
2014-Sep-14 00:00N 78°06' E 013°12'10 9.6 300 / 31988.9 1.6-1.0 4.6
2014-Sep-13 23:00N 78°00' E 012°36'6 6.2 300 / 29988.0 2.3 0.1 5.0
2014-Sep-13 22:00N 78°00' E 012°06'   310 / 25987.5 2.5-0.6 4.9

Dump ship's entire track history